Time;durP1;ratioP1;P1;durP2;ratioP2;P2;SDS_P1;SDS_P2;PMS_P1;PMS_P2;Temp;Humidity;BMP_temperature;BMP_pressure;BME280_temperature;BME280_humidity;BME280_pressure;Samples;Min_cycle;Max_cycle;Signal;HPM_P1;HPM_P2
2023/03/08 00:00:16;;;;;;;11.87;8.83;;;7.10;91.40;;;;;;5056511;28;20685;-71
2023/03/08 00:02:41;;;;;;;16.97;9.23;;;7.10;91.40;;;;;;5053505;28;20520;-71
2023/03/08 00:05:07;;;;;;;16.73;9.27;;;7.00;91.70;;;;;;5053334;28;20436;-71
2023/03/08 00:07:33;;;;;;;13.10;9.27;;;6.90;92.20;;;;;;5049683;28;20516;-71
2023/03/08 00:09:59;;;;;;;12.40;9.30;;;6.80;92.80;;;;;;5051974;28;20437;-71
2023/03/08 00:12:25;;;;;;;12.30;8.83;;;6.80;93.00;;;;;;5057324;28;20684;-71
2023/03/08 00:14:50;;;;;;;13.90;8.63;;;6.80;93.10;;;;;;5050846;28;20678;-71
2023/03/08 00:17:17;;;;;;;10.77;8.00;;;6.80;93.20;;;;;;5051227;28;20640;-71
2023/03/08 00:19:43;;;;;;;13.70;7.40;;;6.80;93.20;;;;;;5047124;28;20616;-71
2023/03/08 00:22:09;;;;;;;14.20;9.97;;;6.80;93.20;;;;;;5050880;28;20472;-71
2023/03/08 00:24:35;;;;;;;11.13;7.80;;;6.80;93.20;;;;;;5051157;28;20456;-72
2023/03/08 00:27:01;;;;;;;15.67;9.50;;;6.80;93.10;;;;;;5055206;28;20950;-71
2023/03/08 00:29:26;;;;;;;14.07;9.70;;;6.80;93.00;;;;;;5050140;28;20926;-71
2023/03/08 00:31:52;;;;;;;13.53;9.03;;;6.70;93.00;;;;;;5049011;28;20259;-71
2023/03/08 00:34:18;;;;;;;15.93;9.30;;;6.70;93.00;;;;;;5053007;28;20324;-71
2023/03/08 00:36:43;;;;;;;13.40;9.43;;;6.70;93.00;;;;;;5050194;28;20242;-71
2023/03/08 00:39:10;;;;;;;13.13;8.77;;;6.70;92.90;;;;;;5053123;28;20223;-72
2023/03/08 00:41:36;;;;;;;13.23;8.43;;;6.70;92.90;;;;;;5054756;28;20294;-72
2023/03/08 00:44:02;;;;;;;18.70;10.23;;;6.70;92.80;;;;;;5053479;28;20461;-72
2023/03/08 00:46:28;;;;;;;12.43;8.90;;;6.70;92.80;;;;;;5050249;28;21055;-72
2023/03/08 00:48:54;;;;;;;14.63;9.47;;;6.70;92.80;;;;;;5048527;28;20433;-70
2023/03/08 00:51:20;;;;;;;12.60;9.43;;;6.70;92.80;;;;;;5050293;28;20850;-71
2023/03/08 00:53:46;;;;;;;12.93;9.37;;;6.70;92.80;;;;;;5053830;28;20563;-71
2023/03/08 00:56:12;;;;;;;13.67;9.33;;;6.60;92.80;;;;;;5053141;28;20499;-71
2023/03/08 00:58:39;;;;;;;13.10;9.30;;;6.70;92.90;;;;;;5051275;28;20445;-71
2023/03/08 01:01:06;;;;;;;13.97;9.30;;;6.60;92.80;;;;;;5051178;28;20487;-72
2023/03/08 01:03:32;;;;;;;13.83;9.87;;;6.60;92.80;;;;;;5055208;28;20855;-71
2023/03/08 01:06:03;;;;;;;14.40;9.70;;;6.50;93.00;;;;;;5049142;28;20502;-72
2023/03/08 01:08:29;;;;;;;13.43;9.20;;;6.50;93.10;;;;;;5049082;28;20430;-72
2023/03/08 01:10:57;;;;;;;13.67;9.83;;;6.60;93.10;;;;;;5046669;28;20445;-72
2023/03/08 01:13:24;;;;;;;15.60;9.20;;;6.50;93.10;;;;;;5052275;28;20229;-72
2023/03/08 01:15:50;;;;;;;15.37;10.00;;;6.50;93.00;;;;;;5051060;28;21197;-70
2023/03/08 01:18:16;;;;;;;14.70;9.50;;;6.50;93.10;;;;;;5046319;28;20442;-71
2023/03/08 01:20:42;;;;;;;12.23;9.47;;;6.50;93.10;;;;;;5049289;28;20206;-71
2023/03/08 01:23:08;;;;;;;12.40;8.90;;;6.50;93.10;;;;;;5053000;28;20183;-70
2023/03/08 01:25:34;;;;;;;13.47;9.50;;;6.50;93.10;;;;;;5047419;28;20448;-69
2023/03/08 01:28:00;;;;;;;13.27;9.80;;;6.40;93.20;;;;;;5047762;28;20453;-71
2023/03/08 01:30:25;;;;;;;17.13;10.13;;;6.40;93.30;;;;;;5053845;28;20423;-71
2023/03/08 01:32:51;;;;;;;13.70;9.10;;;6.40;93.30;;;;;;5047330;28;20187;-72
2023/03/08 01:35:17;;;;;;;17.53;9.80;;;6.50;93.40;;;;;;5050365;28;20270;-72
2023/03/08 01:37:42;;;;;;;14.47;9.03;;;6.50;93.30;;;;;;5050305;28;20211;-72
2023/03/08 01:40:09;;;;;;;15.77;8.53;;;6.50;93.40;;;;;;5049892;28;20216;-71
2023/03/08 01:42:37;;;;;;;15.67;9.27;;;6.50;93.30;;;;;;5053111;28;20206;-72
2023/03/08 01:45:25;;;;;;;15.70;9.03;;;6.50;93.40;;;;;;5049135;28;20508;-71
2023/03/08 01:47:50;;;;;;;11.83;9.90;;;6.50;93.30;;;;;;5047234;28;20469;-72
2023/03/08 01:50:16;;;;;;;12.60;9.67;;;6.50;93.30;;;;;;5052741;28;20488;-72
2023/03/08 01:52:47;;;;;;;12.03;9.37;;;6.50;93.50;;;;;;5050794;28;20201;-71
2023/03/08 01:55:14;;;;;;;15.30;8.53;;;6.40;93.60;;;;;;5051636;28;20812;-71
2023/03/08 01:57:50;;;;;;;16.30;10.47;;;6.40;93.70;;;;;;5049529;28;20857;-70
2023/03/08 02:00:21;;;;;;;12.80;8.50;;;6.40;93.80;;;;;;5055939;28;20464;-72
2023/03/08 02:02:48;;;;;;;16.60;9.80;;;6.40;93.80;;;;;;5046580;28;20442;-71
2023/03/08 02:05:16;;;;;;;14.53;9.17;;;6.40;93.80;;;;;;5045520;28;20906;-71
2023/03/08 02:07:41;;;;;;;12.63;9.37;;;6.40;93.80;;;;;;5046939;28;20465;-71
2023/03/08 02:10:09;;;;;;;14.73;10.27;;;6.40;93.80;;;;;;5047380;28;21192;-71
2023/03/08 02:12:35;;;;;;;16.97;9.67;;;6.40;94.00;;;;;;5049339;28;20464;-71
2023/03/08 02:15:04;;;;;;;14.83;9.90;;;6.40;93.80;;;;;;5046716;28;20786;-71
2023/03/08 02:17:30;;;;;;;13.00;9.17;;;6.50;93.70;;;;;;5047782;28;20963;-71
2023/03/08 02:20:05;;;;;;;13.90;9.40;;;6.50;93.80;;;;;;5045686;28;20437;-71
2023/03/08 02:22:31;;;;;;;14.17;9.70;;;6.40;93.90;;;;;;5046186;28;20433;-71
2023/03/08 02:24:56;;;;;;;11.27;9.00;;;6.40;94.00;;;;;;5046384;28;21211;-71
2023/03/08 02:27:27;;;;;;;12.97;9.03;;;6.60;94.00;;;;;;5050939;28;21162;-72
2023/03/08 02:29:53;;;;;;;14.70;9.87;;;6.60;93.90;;;;;;5049703;28;20837;-71
2023/03/08 02:32:18;;;;;;;15.37;9.27;;;6.50;93.90;;;;;;5049568;28;21443;-71
2023/03/08 02:34:44;;;;;;;12.00;9.33;;;6.60;93.90;;;;;;5051568;28;20429;-71
2023/03/08 02:37:10;;;;;;;14.33;9.90;;;6.60;93.70;;;;;;5046986;28;21694;-71
2023/03/08 02:39:35;;;;;;;14.50;9.63;;;6.60;93.70;;;;;;5050141;28;20184;-70
2023/03/08 02:42:01;;;;;;;12.47;9.10;;;6.60;93.70;;;;;;5044790;28;20214;-70
2023/03/08 02:44:26;;;;;;;13.90;9.47;;;6.50;93.50;;;;;;5054912;28;20215;-70
2023/03/08 02:46:52;;;;;;;12.63;8.67;;;6.60;93.50;;;;;;5055383;28;20211;-70
2023/03/08 02:49:18;;;;;;;15.90;10.30;;;6.60;93.50;;;;;;5046578;28;20219;-71
2023/03/08 02:51:43;;;;;;;11.90;8.60;;;6.50;93.50;;;;;;5049904;28;20444;-71
2023/03/08 02:54:09;;;;;;;14.93;9.80;;;6.60;93.70;;;;;;5048805;28;20651;-71
2023/03/08 02:56:36;;;;;;;13.37;9.37;;;6.70;93.30;;;;;;5051233;28;20195;-71
2023/03/08 02:59:02;;;;;;;14.17;8.60;;;6.70;93.10;;;;;;5051700;28;20180;-71
2023/03/08 03:01:28;;;;;;;11.67;7.57;;;6.60;93.20;;;;;;5054988;28;20526;-71
2023/03/08 03:03:54;;;;;;;12.70;8.57;;;6.60;93.20;;;;;;5052511;28;20918;-70
2023/03/08 03:06:20;;;;;;;14.53;9.10;;;6.60;93.30;;;;;;5054901;28;20202;-71
2023/03/08 03:08:45;;;;;;;21.00;9.53;;;6.60;93.30;;;;;;5053062;28;21024;-71
2023/03/08 03:11:16;;;;;;;17.47;9.30;;;6.70;93.40;;;;;;5050971;28;20456;-71
2023/03/08 03:13:42;;;;;;;14.27;8.87;;;6.50;93.30;;;;;;5050626;28;20226;-71
2023/03/08 03:16:10;;;;;;;12.07;8.53;;;6.70;93.50;;;;;;5048106;28;20978;-71
2023/03/08 03:18:36;;;;;;;12.80;8.87;;;6.60;93.40;;;;;;5053631;28;21071;-71
2023/03/08 03:21:06;;;;;;;13.17;8.17;;;6.60;93.50;;;;;;5054871;28;20456;-71
2023/03/08 03:23:32;;;;;;;13.00;8.73;;;6.60;93.40;;;;;;5052857;28;20640;-71
2023/03/08 03:26:07;;;;;;;15.70;9.40;;;6.70;93.40;;;;;;5051770;28;20441;-71
2023/03/08 03:28:32;;;;;;;11.90;8.40;;;6.60;93.30;;;;;;5053124;28;20175;-71
2023/03/08 03:30:58;;;;;;;12.63;9.20;;;6.60;93.60;;;;;;5053182;28;20613;-71
2023/03/08 03:33:24;;;;;;;14.67;10.33;;;6.60;93.50;;;;;;5049807;28;20195;-71
2023/03/08 03:35:49;;;;;;;13.00;9.43;;;6.60;93.50;;;;;;5052518;28;20682;-71
2023/03/08 03:38:15;;;;;;;14.63;9.77;;;6.70;93.40;;;;;;5046969;28;20184;-71
2023/03/08 03:40:40;;;;;;;15.10;10.30;;;6.70;93.50;;;;;;5052343;28;20658;-71
2023/03/08 03:43:06;;;;;;;16.70;10.23;;;6.60;93.50;;;;;;5054457;28;20198;-71
2023/03/08 03:45:31;;;;;;;15.50;9.50;;;6.60;93.60;;;;;;5052746;28;20636;-70
2023/03/08 03:47:57;;;;;;;16.57;10.10;;;6.70;93.60;;;;;;5051545;28;20597;-70
2023/03/08 03:50:22;;;;;;;14.53;10.50;;;6.70;93.60;;;;;;5055931;28;21073;-71
2023/03/08 03:52:48;;;;;;;15.13;9.53;;;6.70;93.60;;;;;;5051866;28;20712;-70
2023/03/08 03:55:14;;;;;;;12.53;9.00;;;6.80;93.50;;;;;;5056734;28;20280;-71
2023/03/08 03:57:39;;;;;;;16.23;10.27;;;6.80;93.60;;;;;;5051289;28;20264;-71
2023/03/08 04:00:07;;;;;;;15.93;10.23;;;6.60;93.70;;;;;;5052386;28;20279;-71
2023/03/08 04:02:32;;;;;;;15.13;9.50;;;6.60;93.90;;;;;;5052929;28;20178;-70
2023/03/08 04:04:58;;;;;;;12.80;9.23;;;6.60;94.00;;;;;;5050501;28;20535;-71
2023/03/08 04:07:23;;;;;;;15.87;10.27;;;6.50;94.40;;;;;;5051717;28;20284;-71
2023/03/08 04:09:49;;;;;;;16.23;9.23;;;6.60;94.10;;;;;;5049282;28;20229;-71
2023/03/08 04:12:14;;;;;;;13.40;9.53;;;6.60;94.00;;;;;;5050102;28;20257;-71
2023/03/08 04:14:40;;;;;;;15.80;9.80;;;6.60;94.10;;;;;;5051405;28;20230;-71
2023/03/08 04:17:06;;;;;;;14.43;10.50;;;6.60;94.20;;;;;;5051598;28;20714;-72
2023/03/08 04:19:32;;;;;;;15.10;9.40;;;6.60;94.30;;;;;;5052020;28;20196;-71
2023/03/08 04:21:57;;;;;;;15.73;11.13;;;6.60;94.30;;;;;;5051493;28;20521;-70
2023/03/08 04:24:23;;;;;;;13.50;9.63;;;6.60;94.30;;;;;;5052786;28;21667;-70
2023/03/08 04:26:48;;;;;;;15.20;9.20;;;6.50;94.50;;;;;;5050096;28;20212;-71
2023/03/08 04:29:14;;;;;;;15.33;9.60;;;6.60;94.60;;;;;;5052740;28;20191;-71
2023/03/08 04:31:40;;;;;;;14.90;9.80;;;6.50;94.30;;;;;;5055256;28;20192;-69
2023/03/08 04:34:05;;;;;;;18.43;10.23;;;6.50;94.40;;;;;;5050873;28;20219;-71
2023/03/08 04:36:31;;;;;;;11.90;9.70;;;6.60;94.50;;;;;;5048155;28;20211;-71
2023/03/08 04:38:57;;;;;;;15.50;9.30;;;6.60;94.60;;;;;;5049276;28;20198;-71
2023/03/08 04:41:23;;;;;;;14.90;9.70;;;6.60;94.50;;;;;;5049395;28;20247;-70
2023/03/08 04:43:54;;;;;;;16.40;10.13;;;6.70;94.60;;;;;;5052246;28;20905;-71
2023/03/08 04:46:23;;;;;;;15.10;10.00;;;6.70;94.20;;;;;;5053052;28;20471;-70
2023/03/08 04:48:51;;;;;;;14.40;10.43;;;6.80;94.30;;;;;;5053809;28;20437;-71
2023/03/08 04:51:17;;;;;;;15.53;11.90;;;6.90;94.20;;;;;;5048621;28;20814;-70
2023/03/08 04:53:44;;;;;;;15.10;10.00;;;6.90;94.00;;;;;;5051015;28;20784;-70
2023/03/08 04:56:11;;;;;;;13.50;10.00;;;6.90;94.30;;;;;;5046920;28;20492;-71
2023/03/08 04:58:36;;;;;;;16.00;10.27;;;6.90;94.10;;;;;;5054106;28;20990;-70
2023/03/08 05:01:09;;;;;;;15.10;9.23;;;6.90;94.10;;;;;;5049732;28;20731;-70
2023/03/08 05:03:35;;;;;;;12.60;9.33;;;6.90;94.10;;;;;;5045780;28;20645;-71
2023/03/08 05:06:00;;;;;;;14.30;10.20;;;6.90;94.20;;;;;;5051236;28;20509;-71
2023/03/08 05:08:26;;;;;;;12.50;9.67;;;6.90;94.20;;;;;;5047845;28;20186;-71
2023/03/08 05:10:57;;;;;;;14.90;10.30;;;7.00;94.20;;;;;;5049021;28;20191;-70
2023/03/08 05:13:23;;;;;;;16.97;10.17;;;7.00;94.40;;;;;;5051898;28;20195;-70
2023/03/08 05:15:49;;;;;;;15.97;9.77;;;7.00;94.40;;;;;;5051331;28;20905;-70
2023/03/08 05:18:14;;;;;;;16.13;10.97;;;6.80;94.60;;;;;;5050714;28;20952;-71
2023/03/08 05:20:40;;;;;;;14.37;10.13;;;6.80;95.00;;;;;;5051852;28;20215;-71
2023/03/08 05:23:06;;;;;;;18.10;11.40;;;6.80;94.90;;;;;;5049076;28;20190;-71
2023/03/08 05:25:32;;;;;;;16.70;10.43;;;6.80;95.00;;;;;;5052129;28;20189;-71
2023/03/08 05:27:58;;;;;;;15.10;11.00;;;6.80;95.20;;;;;;5044949;28;20211;-70
2023/03/08 05:30:23;;;;;;;14.23;10.27;;;6.80;95.20;;;;;;5054010;28;20465;-70
2023/03/08 05:32:49;;;;;;;17.63;11.23;;;6.70;95.20;;;;;;5049323;28;20184;-70
2023/03/08 05:35:14;;;;;;;16.13;9.93;;;6.70;95.10;;;;;;5052691;28;20186;-70
2023/03/08 05:37:40;;;;;;;16.83;11.40;;;6.80;95.20;;;;;;5050273;28;20212;-70
2023/03/08 05:40:06;;;;;;;14.10;10.20;;;6.80;95.40;;;;;;5040347;28;20175;-70
2023/03/08 05:42:32;;;;;;;15.70;10.53;;;6.80;95.30;;;;;;5047679;28;20352;-70
2023/03/08 05:44:58;;;;;;;14.90;10.80;;;6.90;95.20;;;;;;5050424;28;20417;-70
2023/03/08 05:47:24;;;;;;;12.30;10.07;;;6.90;95.20;;;;;;5052261;28;20848;-70
2023/03/08 05:49:50;;;;;;;14.73;10.20;;;6.80;95.50;;;;;;5053467;28;20442;-70
2023/03/08 05:52:16;;;;;;;16.00;10.80;;;6.80;95.30;;;;;;5047604;28;20268;-70
2023/03/08 05:54:41;;;;;;;16.70;11.13;;;6.70;95.70;;;;;;5052247;28;20528;-70
2023/03/08 05:57:07;;;;;;;15.53;10.93;;;6.80;95.70;;;;;;5052734;28;20272;-70
2023/03/08 05:59:32;;;;;;;15.63;10.67;;;6.80;95.60;;;;;;5050178;28;20187;-69
2023/03/08 06:01:58;;;;;;;15.17;10.03;;;6.80;95.60;;;;;;5046683;28;20200;-69
2023/03/08 06:04:24;;;;;;;16.73;11.00;;;6.80;95.70;;;;;;5052290;28;20292;-69
2023/03/08 06:06:49;;;;;;;13.77;10.50;;;6.80;95.60;;;;;;5049568;28;20685;-69
2023/03/08 06:09:15;;;;;;;15.03;10.23;;;6.90;95.70;;;;;;5053396;28;20652;-70
2023/03/08 06:11:40;;;;;;;16.80;10.20;;;6.90;95.70;;;;;;5043304;28;21052;-70
2023/03/08 06:14:06;;;;;;;12.97;9.40;;;6.90;95.90;;;;;;5046826;28;20305;-70
2023/03/08 06:16:31;;;;;;;16.77;10.80;;;6.80;96.10;;;;;;5051913;28;20226;-70
2023/03/08 06:18:57;;;;;;;15.00;9.80;;;6.80;96.10;;;;;;5052074;28;20211;-70
2023/03/08 06:21:22;;;;;;;12.87;9.20;;;6.80;96.10;;;;;;5055444;28;20234;-70
2023/03/08 06:23:49;;;;;;;15.33;9.50;;;6.90;96.00;;;;;;5051683;28;20175;-70
2023/03/08 06:26:15;;;;;;;13.80;9.47;;;7.00;96.10;;;;;;5051605;28;20198;-70
2023/03/08 06:28:41;;;;;;;15.57;10.40;;;7.00;95.90;;;;;;5054173;28;20430;-70
2023/03/08 06:31:10;;;;;;;18.20;10.03;;;7.00;95.80;;;;;;5057440;28;21466;-70
2023/03/08 06:33:36;;;;;;;15.20;9.90;;;7.10;95.80;;;;;;5058744;28;20433;-70
2023/03/08 06:36:08;;;;;;;12.33;9.50;;;7.00;95.90;;;;;;5057736;28;20452;-70
2023/03/08 06:38:36;;;;;;;13.20;9.30;;;7.00;96.10;;;;;;5050572;28;20551;-70
2023/03/08 06:41:02;;;;;;;14.93;10.67;;;7.00;96.50;;;;;;5050291;28;20595;-70
2023/03/08 06:43:29;;;;;;;14.57;10.63;;;7.00;96.90;;;;;;5056608;28;20431;-70
2023/03/08 06:45:55;;;;;;;17.87;10.70;;;7.00;97.30;;;;;;5052837;28;20449;-69
2023/03/08 06:48:20;;;;;;;13.53;10.37;;;7.10;98.20;;;;;;5054073;28;20424;-71
2023/03/08 06:50:46;;;;;;;15.20;11.17;;;7.00;99.10;;;;;;5057655;28;20432;-70
2023/03/08 06:53:12;;;;;;;21.37;11.97;;;7.00;99.90;;;;;;5053396;28;20683;-70
2023/03/08 06:55:39;;;;;;;15.10;11.03;;;6.80;99.90;;;;;;5055440;28;20218;-70
2023/03/08 06:58:05;;;;;;;15.90;9.43;;;6.70;99.90;;;;;;5053412;28;20485;-70
2023/03/08 07:00:31;;;;;;;15.60;11.57;;;6.70;99.90;;;;;;5052737;28;20471;-70
2023/03/08 07:02:57;;;;;;;18.70;12.87;;;6.70;99.90;;;;;;5048568;28;20482;-70
2023/03/08 07:05:22;;;;;;;16.07;12.00;;;6.70;99.90;;;;;;5053180;28;20473;-70
2023/03/08 07:07:48;;;;;;;13.40;10.20;;;6.60;99.90;;;;;;5052874;28;20464;-70
2023/03/08 07:10:18;;;;;;;17.93;11.57;;;6.70;99.90;;;;;;5056072;28;20569;-70
2023/03/08 07:12:47;;;;;;;20.53;12.40;;;6.60;99.90;;;;;;5058872;28;20179;-70
2023/03/08 07:15:14;;;;;;;17.93;12.00;;;6.60;99.90;;;;;;5056505;28;20434;-70
2023/03/08 07:17:41;;;;;;;16.70;11.10;;;6.60;99.90;;;;;;5055215;28;20964;-70
2023/03/08 07:20:08;;;;;;;18.00;12.47;;;6.40;99.90;;;;;;5048300;28;20414;-70
2023/03/08 07:22:34;;;;;;;15.60;10.50;;;6.40;99.90;;;;;;5051083;28;20417;-70
2023/03/08 07:24:59;;;;;;;16.57;11.80;;;6.40;99.90;;;;;;5053539;28;20443;-70
2023/03/08 07:27:25;;;;;;;17.27;11.73;;;6.30;99.90;;;;;;5048750;28;20204;-70
2023/03/08 07:29:50;;;;;;;17.40;11.47;;;6.40;99.90;;;;;;5047069;28;20167;-70
2023/03/08 07:32:16;;;;;;;18.30;12.00;;;6.40;99.90;;;;;;5048835;28;20179;-70
2023/03/08 07:34:42;;;;;;;21.27;11.40;;;6.40;99.90;;;;;;5051310;28;20648;-69
2023/03/08 07:37:12;;;;;;;19.00;11.20;;;6.40;99.90;;;;;;5046936;28;20199;-70
2023/03/08 07:39:37;;;;;;;21.40;12.13;;;6.40;99.90;;;;;;5053847;28;20876;-70
2023/03/08 07:42:03;;;;;;;20.03;12.30;;;6.40;99.90;;;;;;5051193;28;20461;-70
2023/03/08 07:44:29;;;;;;;19.07;10.40;;;6.40;99.90;;;;;;5053700;28;20281;-70
2023/03/08 07:46:54;;;;;;;17.00;11.13;;;6.20;99.90;;;;;;5047379;28;20470;-69
2023/03/08 07:49:20;;;;;;;18.03;11.20;;;6.20;99.90;;;;;;5041982;28;20249;-70
2023/03/08 07:51:48;;;;;;;17.03;11.43;;;6.30;99.90;;;;;;5053945;28;20205;-70
2023/03/08 07:54:13;;;;;;;19.70;12.30;;;6.30;99.90;;;;;;5053064;28;20671;-70
2023/03/08 07:56:39;;;;;;;13.63;9.17;;;6.30;99.90;;;;;;5049861;28;20449;-70
2023/03/08 07:59:04;;;;;;;13.97;8.93;;;6.30;99.90;;;;;;5054151;28;20194;-70
2023/03/08 08:01:31;;;;;;;20.50;10.83;;;6.30;99.90;;;;;;5041533;28;20775;-70
2023/03/08 08:03:58;;;;;;;17.03;11.27;;;6.30;99.90;;;;;;5047327;28;20491;-70
2023/03/08 08:06:24;;;;;;;16.50;11.00;;;6.30;99.90;;;;;;5051860;28;20671;-70
2023/03/08 08:08:50;;;;;;;19.30;11.40;;;6.30;99.90;;;;;;5049098;28;20934;-70
2023/03/08 08:11:18;;;;;;;20.27;11.83;;;6.40;99.90;;;;;;5046071;28;20520;-69
2023/03/08 08:13:45;;;;;;;16.63;10.67;;;6.50;99.90;;;;;;5052524;28;20993;-70
2023/03/08 08:16:12;;;;;;;20.10;12.53;;;6.60;99.90;;;;;;5046729;28;20454;-68
2023/03/08 08:18:38;;;;;;;16.93;9.83;;;6.70;99.90;;;;;;5055460;28;20448;-70
2023/03/08 08:21:06;;;;;;;16.63;10.00;;;6.60;99.90;;;;;;5046763;28;21044;-69
2023/03/08 08:23:32;;;;;;;14.77;10.70;;;6.60;99.90;;;;;;5047569;28;20551;-67
2023/03/08 08:25:58;;;;;;;13.00;9.07;;;6.50;99.90;;;;;;5049708;28;20426;-68
2023/03/08 08:28:25;;;;;;;15.87;10.10;;;6.60;99.90;;;;;;5054625;28;20413;-68
2023/03/08 08:31:12;;;;;;;13.87;9.80;;;6.60;99.90;;;;;;5052941;28;20187;-68
2023/03/08 08:33:38;;;;;;;15.40;9.17;;;6.70;99.90;;;;;;5055959;28;20413;-68
2023/03/08 08:36:06;;;;;;;14.00;9.80;;;6.80;99.90;;;;;;5052173;28;20433;-68
2023/03/08 08:38:32;;;;;;;14.83;10.30;;;6.80;99.90;;;;;;5055914;28;20213;-69
2023/03/08 08:41:03;;;;;;;15.53;9.43;;;6.90;99.90;;;;;;5040706;28;20900;-70
2023/03/08 08:43:29;;;;;;;15.40;8.87;;;6.90;99.90;;;;;;5046971;28;20815;-70
2023/03/08 08:45:57;;;;;;;17.27;9.97;;;6.90;99.90;;;;;;5049457;28;20453;-69
2023/03/08 08:48:23;;;;;;;12.00;9.13;;;6.90;99.90;;;;;;5053672;28;20441;-69
2023/03/08 08:50:49;;;;;;;12.80;8.80;;;7.00;99.90;;;;;;5048900;28;21300;-68
2023/03/08 08:53:15;;;;;;;14.60;9.30;;;7.00;99.90;;;;;;5052032;28;20418;-68
2023/03/08 08:55:40;;;;;;;24.53;17.27;;;7.00;99.90;;;;;;5051865;28;20186;-68
2023/03/08 08:58:06;;;;;;;13.10;9.60;;;7.00;99.90;;;;;;5051946;28;20202;-67
2023/03/08 09:00:33;;;;;;;20.27;10.03;;;6.90;99.90;;;;;;5054350;28;20680;-68
2023/03/08 09:03:00;;;;;;;14.30;9.40;;;6.90;99.90;;;;;;5047598;28;20258;-69
2023/03/08 09:05:26;;;;;;;15.77;10.40;;;6.80;99.90;;;;;;5049094;28;20831;-68
2023/03/08 09:07:58;;;;;;;16.97;11.23;;;6.90;99.90;;;;;;5044831;28;20449;-67
2023/03/08 09:10:25;;;;;;;14.93;9.70;;;6.90;99.90;;;;;;5050185;28;20265;-68
2023/03/08 09:12:50;;;;;;;14.57;9.47;;;6.90;99.90;;;;;;5049249;28;20543;-68
2023/03/08 09:15:16;;;;;;;13.23;8.60;;;6.90;99.90;;;;;;5048165;28;20465;-69
2023/03/08 09:17:42;;;;;;;15.87;10.23;;;7.00;99.90;;;;;;5047040;28;20803;-68
2023/03/08 09:20:08;;;;;;;13.60;8.97;;;7.00;99.90;;;;;;5051710;28;20278;-69
2023/03/08 09:22:35;;;;;;;16.50;10.23;;;7.10;99.90;;;;;;5053606;28;20179;-69
2023/03/08 09:25:01;;;;;;;13.03;10.37;;;7.10;99.90;;;;;;5039947;28;21075;-68
2023/03/08 09:27:26;;;;;;;17.50;10.70;;;7.10;99.90;;;;;;5042514;28;20454;-68
2023/03/08 09:29:52;;;;;;;13.93;10.30;;;7.20;99.90;;;;;;5058505;28;20690;-68
2023/03/08 09:32:17;;;;;;;14.67;10.70;;;7.20;99.90;;;;;;5048185;28;20266;-68
2023/03/08 09:34:43;;;;;;;17.30;10.83;;;7.20;99.90;;;;;;5050162;28;20270;-68
2023/03/08 09:37:10;;;;;;;12.00;8.90;;;7.20;99.90;;;;;;5046650;28;20211;-67
2023/03/08 09:39:37;;;;;;;16.67;10.13;;;7.20;99.90;;;;;;5045029;28;20267;-67
2023/03/08 09:42:04;;;;;;;17.23;9.70;;;7.20;99.90;;;;;;5048747;28;20638;-68
2023/03/08 09:44:44;;;;;;;15.27;9.90;;;7.30;99.90;;;;;;5047331;28;20413;-68
2023/03/08 09:47:31;;;;;;;13.53;9.87;;;7.40;99.90;;;;;;5047193;28;21100;-69
2023/03/08 09:50:12;;;;;;;16.13;10.33;;;7.40;99.90;;;;;;5044800;28;20417;-67
2023/03/08 09:52:53;;;;;;;18.10;9.97;;;7.50;99.90;;;;;;5042869;28;20442;-67
2023/03/08 09:55:29;;;;;;;13.63;9.70;;;7.50;99.90;;;;;;5046951;28;20869;-67
2023/03/08 09:58:00;;;;;;;14.40;9.20;;;7.60;99.90;;;;;;5049793;28;20451;-69
2023/03/08 10:00:32;;;;;;;12.83;10.00;;;7.60;99.90;;;;;;5045008;28;20437;-69
2023/03/08 10:03:06;;;;;;;17.20;10.20;;;7.60;99.90;;;;;;5046525;28;20444;-70
2023/03/08 10:05:35;;;;;;;16.20;9.77;;;7.60;99.90;;;;;;5052906;28;21059;-69
2023/03/08 10:08:12;;;;;;;13.83;10.07;;;7.60;99.90;;;;;;5042696;28;20884;-69
2023/03/08 10:10:55;;;;;;;18.43;11.70;;;7.70;99.90;;;;;;5050706;28;20860;-70
2023/03/08 10:13:30;;;;;;;16.90;11.90;;;7.70;99.90;;;;;;5047540;28;20798;-71
2023/03/08 10:16:25;;;;;;;17.20;10.23;;;7.80;99.90;;;;;;5047544;28;20441;-69
2023/03/08 10:19:11;;;;;;;15.37;11.13;;;7.80;99.90;;;;;;5047057;28;20446;-68
2023/03/08 10:21:39;;;;;;;16.50;10.60;;;7.80;99.90;;;;;;5047652;28;20537;-71
2023/03/08 10:24:26;;;;;;;19.47;10.70;;;7.70;99.90;;;;;;5049349;28;20713;-72
2023/03/08 10:27:21;;;;;;;13.67;10.40;;;7.80;99.90;;;;;;5044008;28;20453;-69
2023/03/08 10:29:55;;;;;;;16.90;10.43;;;7.70;99.90;;;;;;5034245;28;20864;-70
2023/03/08 10:32:23;;;;;;;13.13;9.40;;;7.80;99.90;;;;;;5049677;28;20433;-70
2023/03/08 10:34:49;;;;;;;14.37;10.20;;;7.80;99.90;;;;;;5049271;28;20533;-71
2023/03/08 10:37:15;;;;;;;17.47;10.50;;;7.90;99.90;;;;;;5046175;28;20499;-69
2023/03/08 10:39:53;;;;;;;14.77;10.00;;;8.00;99.90;;;;;;5054961;28;20490;-71
2023/03/08 10:42:22;;;;;;;14.07;10.30;;;8.00;99.90;;;;;;5049720;28;20472;-71
2023/03/08 10:44:58;;;;;;;15.37;10.37;;;8.00;99.90;;;;;;5046274;28;20468;-72
2023/03/08 10:47:32;;;;;;;12.43;9.83;;;8.00;99.90;;;;;;5047120;28;20489;-68
2023/03/08 10:50:20;;;;;;;13.97;9.83;;;7.90;99.90;;;;;;5046667;28;20426;-70
2023/03/08 10:52:49;;;;;;;17.13;11.13;;;7.90;99.90;;;;;;5049761;28;20430;-68
2023/03/08 10:55:16;;;;;;;16.40;10.47;;;7.90;99.90;;;;;;5044966;28;20445;-68
2023/03/08 10:57:54;;;;;;;17.97;10.17;;;7.90;99.90;;;;;;5043843;28;20461;-71
2023/03/08 11:00:29;;;;;;;14.47;10.07;;;7.80;99.90;;;;;;5045303;28;20448;-68
2023/03/08 11:03:12;;;;;;;17.87;10.57;;;7.90;99.90;;;;;;5046759;28;20878;-68
2023/03/08 11:05:38;;;;;;;16.53;11.50;;;7.90;99.90;;;;;;5055194;28;20791;-69
2023/03/08 11:08:18;;;;;;;15.70;10.30;;;8.00;99.90;;;;;;5049970;28;20437;-69
2023/03/08 11:10:43;;;;;;;17.07;11.50;;;8.00;99.90;;;;;;5053941;28;20433;-69
2023/03/08 11:13:25;;;;;;;16.33;11.47;;;8.10;99.90;;;;;;5050300;28;20460;-68
2023/03/08 11:16:36;;;;;;;16.90;11.00;;;8.20;99.90;;;;;;5049002;28;20608;-68
2023/03/08 11:19:33;;;;;;;19.80;11.20;;;8.30;99.90;;;;;;5055077;28;20442;-68
2023/03/08 11:22:28;;;;;;;18.73;11.73;;;8.40;99.90;;;;;;5054513;28;20477;-70
2023/03/08 11:25:00;;;;;;;12.50;9.07;;;8.50;99.90;;;;;;5051145;28;20453;-68
2023/03/08 11:27:44;;;;;;;12.60;8.70;;;8.60;99.90;;;;;;5053795;28;20785;-70
2023/03/08 11:30:48;;;;;;;7.10;5.67;;;8.60;99.90;;;;;;5050483;28;20876;-69
2023/03/08 11:33:28;;;;;;;5.70;4.63;;;8.70;99.90;;;;;;5047847;28;20449;-69
2023/03/08 11:36:27;;;;;;;6.00;3.43;;;8.80;99.90;;;;;;5047649;28;20529;-70
2023/03/08 11:39:11;;;;;;;3.80;3.07;;;9.00;99.90;;;;;;5052513;28;20939;-70
2023/03/08 11:41:55;;;;;;;4.90;3.90;;;9.10;99.90;;;;;;5053758;28;21069;-70
2023/03/08 11:44:34;;;;;;;4.50;2.97;;;9.30;99.90;;;;;;5051232;28;20966;-69
2023/03/08 11:47:28;;;;;;;5.93;3.40;;;9.40;99.90;;;;;;5054229;28;20465;-69
2023/03/08 11:50:04;;;;;;;3.50;2.80;;;9.50;99.90;;;;;;5052762;28;20419;-70
2023/03/08 11:52:39;;;;;;;4.43;3.07;;;9.70;99.90;;;;;;5048573;28;20610;-69
2023/03/08 11:55:38;;;;;;;4.50;2.90;;;9.80;99.90;;;;;;5051526;28;20463;-69
2023/03/08 11:58:21;;;;;;;4.37;2.60;;;9.80;99.90;;;;;;5051381;28;20461;-70
2023/03/08 12:00:50;;;;;;;3.30;2.40;;;10.10;99.90;;;;;;5054679;28;20503;-70
2023/03/08 12:03:23;;;;;;;4.13;2.23;;;10.20;99.90;;;;;;5052762;28;20598;-70
2023/03/08 12:06:10;;;;;;;3.67;2.70;;;10.30;99.90;;;;;;5052488;28;20423;-69
2023/03/08 12:08:43;;;;;;;3.90;2.53;;;10.40;99.90;;;;;;5042048;28;20441;-70
2023/03/08 12:11:25;;;;;;;3.13;2.30;;;10.50;99.90;;;;;;5051642;28;20863;-70
2023/03/08 12:14:12;;;;;;;3.57;2.40;;;10.60;99.90;;;;;;5049932;28;20433;-69
2023/03/08 12:16:46;;;;;;;4.50;2.60;;;10.70;99.90;;;;;;5047860;28;21152;-70
2023/03/08 12:19:27;;;;;;;3.00;2.07;;;10.80;99.90;;;;;;5045264;28;20496;-68
2023/03/08 12:22:11;;;;;;;3.33;2.20;;;10.90;99.90;;;;;;5048049;28;20468;-68
2023/03/08 12:24:42;;;;;;;4.20;2.23;;;10.90;99.90;;;;;;5043732;28;20459;-71
2023/03/08 12:27:20;;;;;;;3.27;2.50;;;10.90;99.90;;;;;;5054031;28;20448;-69
2023/03/08 12:29:59;;;;;;;5.50;2.80;;;10.90;99.90;;;;;;5051378;28;21368;-68
2023/03/08 12:32:25;;;;;;;2.47;2.03;;;11.00;99.90;;;;;;5050737;28;20832;-69
2023/03/08 12:35:22;;;;;;;2.30;1.80;;;11.10;99.90;;;;;;5049671;28;20449;-71
2023/03/08 12:38:04;;;;;;;7.07;2.27;;;11.20;99.90;;;;;;5060656;28;20451;-69
2023/03/08 12:40:43;;;;;;;2.80;2.33;;;11.20;99.90;;;;;;5052846;28;20446;-71
2023/03/08 12:43:27;;;;;;;2.67;2.20;;;11.30;99.90;;;;;;5051455;28;22806;-68
2023/03/08 12:45:58;;;;;;;3.00;2.00;;;11.40;99.90;;;;;;5049160;28;20476;-71
2023/03/08 12:48:27;;;;;;;4.00;2.10;;;11.50;99.90;;;;;;5050255;28;20425;-69
2023/03/08 12:50:52;;;;;;;3.07;2.27;;;11.50;99.90;;;;;;5048297;28;20809;-68
2023/03/08 12:53:40;;;;;;;2.90;2.27;;;11.60;99.90;;;;;;5048721;28;21305;-69